createdAt,value
2023-01-11T00:02:35.898Z,7.15
2023-01-11T00:07:34.756Z,7.25
2023-01-11T00:12:35.085Z,7.18
2023-01-11T00:17:34.163Z,7.06
2023-01-11T00:22:32.968Z,6.99
2023-01-11T00:27:32.092Z,7.07
2023-01-11T00:32:32.326Z,6.86
2023-01-11T00:37:32.840Z,6.92
2023-01-11T00:42:49.114Z,6.88
2023-01-11T00:48:06.018Z,6.93
2023-01-11T00:53:09.157Z,7.00
2023-01-11T00:58:08.400Z,6.77
2023-01-11T01:03:10.136Z,6.87
2023-01-11T01:08:09.069Z,6.81
2023-01-11T01:13:25.490Z,6.66
2023-01-11T01:18:25.867Z,6.82
2023-01-11T01:23:24.788Z,6.71
2023-01-11T01:28:28.115Z,6.89
2023-01-11T01:33:28.402Z,6.82
2023-01-11T01:38:27.333Z,6.69
2023-01-11T01:43:47.763Z,6.62
2023-01-11T01:48:52.564Z,6.39
2023-01-11T01:53:55.596Z,6.44
2023-01-11T01:58:59.087Z,6.52
2023-01-11T02:03:59.431Z,6.60
2023-01-11T02:09:03.686Z,6.37
2023-01-11T02:14:05.703Z,6.49
2023-01-11T02:19:07.964Z,6.60
2023-01-11T02:24:43.115Z,6.79
2023-01-11T02:29:55.738Z,6.81
2023-01-11T02:35:04.583Z,6.89
2023-01-11T02:40:10.662Z,6.98
2023-01-11T02:45:19.123Z,6.95
2023-01-11T02:50:23.733Z,7.01
2023-01-11T02:55:26.113Z,6.94
2023-01-11T03:00:27.016Z,6.95
2023-01-11T03:05:25.974Z,7.00
2023-01-11T03:10:37.179Z,6.96
2023-01-11T03:15:55.912Z,6.98
2023-01-11T03:21:02.428Z,6.95
2023-01-11T03:26:10.220Z,6.98
2023-01-11T03:31:16.864Z,6.94
2023-01-11T03:36:21.471Z,6.93
2023-01-11T03:41:23.744Z,7.00
2023-01-11T03:46:29.074Z,6.88
2023-01-11T03:51:31.313Z,6.84
2023-01-11T03:56:38.231Z,6.86
2023-01-11T04:01:42.039Z,6.94
2023-01-11T04:06:41.089Z,6.94
2023-01-11T04:11:40.005Z,6.76
2023-01-11T04:16:40.284Z,6.84
2023-01-11T04:21:39.249Z,6.74
2023-01-11T04:26:38.156Z,6.58
2023-01-11T04:31:37.138Z,6.63
2023-01-11T04:36:37.577Z,6.72
2023-01-11T04:41:54.154Z,6.57
2023-01-11T04:46:53.463Z,6.63
2023-01-11T04:51:53.832Z,6.68
2023-01-11T04:56:52.771Z,6.66
2023-01-11T05:01:51.789Z,6.75
2023-01-11T05:06:50.837Z,6.75
2023-01-11T05:11:51.231Z,6.80
2023-01-11T05:16:51.337Z,6.67
2023-01-11T05:21:50.199Z,6.66
2023-01-11T05:27:01.699Z,6.66
2023-01-11T05:32:03.876Z,6.61
2023-01-11T05:37:03.001Z,6.63
2023-01-11T05:42:03.304Z,6.76
2023-01-11T05:47:02.242Z,6.87
2023-01-11T05:52:01.082Z,6.95
2023-01-11T05:57:00.031Z,6.97
2023-01-11T06:02:02.189Z,7.01
2023-01-11T06:07:01.289Z,6.94
2023-01-11T06:12:00.352Z,7.02
2023-01-11T06:17:02.963Z,7.08
2023-01-11T06:22:03.954Z,7.11
2023-01-11T06:27:03.223Z,7.15
2023-01-11T06:32:03.687Z,7.17
2023-01-11T06:37:02.902Z,7.23
2023-01-11T06:42:04.298Z,7.26
2023-01-11T06:47:05.197Z,7.31
2023-01-11T06:52:06.189Z,7.38
2023-01-11T06:57:05.189Z,7.43
2023-01-11T07:02:05.607Z,7.49
2023-01-11T07:07:07.035Z,7.53
2023-01-11T07:12:09.077Z,7.58
2023-01-11T07:17:09.981Z,7.60
2023-01-11T07:22:08.840Z,7.62
2023-01-11T07:27:07.738Z,7.62
2023-01-11T07:32:08.382Z,7.58
2023-01-11T07:37:29.100Z,7.47
2023-01-11T07:42:46.161Z,7.44
2023-01-11T07:47:45.345Z,7.34
2023-01-11T07:52:51.452Z,7.43
2023-01-11T07:57:54.045Z,7.39
2023-01-11T08:02:54.190Z,7.20
2023-01-11T08:07:55.083Z,7.26
2023-01-11T08:13:11.788Z,7.24
2023-01-11T08:18:11.736Z,7.34
2023-01-11T08:23:12.272Z,7.40
2023-01-11T08:28:12.802Z,7.30
2023-01-11T08:33:12.093Z,7.30
2023-01-11T08:38:13.254Z,7.37
2023-01-11T08:43:12.481Z,7.39
2023-01-11T08:48:12.353Z,7.43
2023-01-11T08:53:13.064Z,7.51
2023-01-11T08:58:12.008Z,7.57
2023-01-11T09:03:13.282Z,7.64
2023-01-11T09:08:13.710Z,7.60
2023-01-11T09:13:13.250Z,7.65
2023-01-11T09:18:12.343Z,7.50
2023-01-11T09:23:11.270Z,7.48
2023-01-11T09:28:14.642Z,7.66
2023-01-11T09:33:13.780Z,7.81
2023-01-11T09:38:12.971Z,7.78
2023-01-11T09:43:16.953Z,7.86
2023-01-11T09:48:29.004Z,7.92
2023-01-11T09:53:35.187Z,7.93
2023-01-11T09:58:51.907Z,7.99
2023-01-11T10:04:24.229Z,7.97
2023-01-11T10:18:22.628Z,8.11
2023-01-11T10:26:41.707Z,8.14
2023-01-11T10:32:06.718Z,8.16
2023-01-11T10:37:30.686Z,8.10
2023-01-11T10:42:43.134Z,8.11
2023-01-11T10:47:50.645Z,8.00
2023-01-11T10:53:16.029Z,7.98
2023-01-11T10:58:26.645Z,7.96
2023-01-11T11:03:52.368Z,7.96
2023-01-11T11:09:01.996Z,7.89
2023-01-11T11:14:14.179Z,7.91
2023-01-11T11:19:59.929Z,7.78
2023-01-11T11:25:08.593Z,7.83
2023-01-11T11:30:17.240Z,7.86
2023-01-11T11:40:40.222Z,7.64
2023-01-11T11:45:52.043Z,7.68
2023-01-11T11:50:53.089Z,7.65
2023-01-11T11:55:57.365Z,7.51
2023-01-11T12:00:56.577Z,7.62
2023-01-11T12:06:07.902Z,7.56
2023-01-11T12:11:09.567Z,7.45
2023-01-11T12:16:21.437Z,7.34
2023-01-11T12:21:22.409Z,7.22
2023-01-11T12:26:33.934Z,7.26
2023-01-11T12:31:43.994Z,7.24
2023-01-11T12:36:54.428Z,7.56
2023-01-11T12:42:07.713Z,7.72
2023-01-11T12:47:32.622Z,7.76
2023-01-11T12:52:50.739Z,7.48
2023-01-11T12:58:02.008Z,7.21
2023-01-11T13:03:34.488Z,6.76
2023-01-11T13:08:53.462Z,6.78
2023-01-11T13:14:02.100Z,6.62
2023-01-11T13:19:05.875Z,6.65
2023-01-11T13:24:10.982Z,6.59
2023-01-11T13:35:05.757Z,6.03
2023-01-11T13:40:11.828Z,5.91
2023-01-11T13:45:20.046Z,5.67
2023-01-11T13:50:26.559Z,5.69
2023-01-11T14:01:16.127Z,5.22
2023-01-11T14:12:28.288Z,5.40
2023-01-11T14:17:43.699Z,5.14
2023-01-11T14:22:49.397Z,5.04
2023-01-11T14:28:29.247Z,4.88
2023-01-11T14:33:47.388Z,5.02
2023-01-11T14:39:23.855Z,4.67
2023-01-11T14:44:53.868Z,4.68
2023-01-11T14:50:34.414Z,4.70
2023-01-11T14:55:50.551Z,4.51
2023-01-11T15:01:22.483Z,4.45
2023-01-11T15:06:24.134Z,4.39
2023-01-11T15:11:42.578Z,4.44
2023-01-11T15:17:00.879Z,4.45
2023-01-11T15:22:03.821Z,4.45
2023-01-11T15:27:26.327Z,4.34
2023-01-11T15:32:44.243Z,4.25
2023-01-11T15:38:35.978Z,4.19
2023-01-11T15:44:00.693Z,4.07
2023-01-11T15:49:33.759Z,3.81
2023-01-11T15:54:58.028Z,3.80
2023-01-11T16:00:36.596Z,3.61
2023-01-11T16:05:43.002Z,3.74
2023-01-11T16:11:18.590Z,3.65
2023-01-11T16:16:23.651Z,3.88
2023-01-11T16:21:32.381Z,3.97
2023-01-11T16:26:33.217Z,3.87
2023-01-11T16:31:54.285Z,3.95
2023-01-11T16:36:53.373Z,3.85
2023-01-11T16:41:58.373Z,3.62
2023-01-11T16:47:19.099Z,3.65
2023-01-11T16:52:39.350Z,3.70
2023-01-11T16:57:44.710Z,3.86
2023-01-11T17:02:47.326Z,3.84
2023-01-11T17:07:46.410Z,3.85
2023-01-11T17:12:52.751Z,3.64
2023-01-11T17:17:52.404Z,3.59
2023-01-11T17:22:54.277Z,3.52
2023-01-11T17:28:00.760Z,3.52
2023-01-11T17:33:00.423Z,3.33
2023-01-11T17:38:01.139Z,3.36
2023-01-11T17:43:23.975Z,3.56
2023-01-11T17:48:24.146Z,3.45
2023-01-11T17:53:28.478Z,3.23
2023-01-11T17:58:29.908Z,3.30
2023-01-11T18:03:29.594Z,3.39
2023-01-11T18:08:28.974Z,3.38
2023-01-11T18:13:34.113Z,3.52
2023-01-11T18:18:45.055Z,3.66
2023-01-11T18:23:44.617Z,3.37
2023-01-11T18:28:45.366Z,3.26
2023-01-11T18:33:44.947Z,3.26
2023-01-11T18:38:44.491Z,3.00
2023-01-11T18:43:45.575Z,3.09
2023-01-11T18:48:44.663Z,3.11
2023-01-11T18:53:45.265Z,2.90
2023-01-11T18:58:46.112Z,3.34
2023-01-11T19:03:46.220Z,3.24
2023-01-11T19:08:45.951Z,3.14
2023-01-11T19:13:47.285Z,2.99
2023-01-11T19:18:47.558Z,3.11
2023-01-11T19:23:46.599Z,2.95
2023-01-11T19:28:47.499Z,3.13
2023-01-11T19:33:47.968Z,2.93
2023-01-11T19:38:50.272Z,2.50
2023-01-11T19:43:52.271Z,2.59
2023-01-11T19:48:51.751Z,2.91
2023-01-11T19:53:51.029Z,2.66
2023-01-11T19:58:51.680Z,2.91
2023-01-11T20:03:50.928Z,3.08
2023-01-11T20:08:51.415Z,3.08
2023-01-11T20:13:52.303Z,3.09
2023-01-11T20:18:55.335Z,3.16
2023-01-11T20:23:57.626Z,3.12
2023-01-11T20:28:59.324Z,2.69
2023-01-11T20:33:59.034Z,2.99
2023-01-11T20:38:58.089Z,2.71
2023-01-11T20:43:59.595Z,2.79
2023-01-11T20:48:59.591Z,2.89
2023-01-11T20:53:58.453Z,3.10
2023-01-11T20:59:09.619Z,3.11
2023-01-11T21:04:12.255Z,2.97
2023-01-11T21:09:14.532Z,2.87
2023-01-11T21:14:15.326Z,2.89
2023-01-11T21:19:16.124Z,3.23
2023-01-11T21:24:16.915Z,2.66
2023-01-11T21:29:22.091Z,2.85
2023-01-11T21:34:21.192Z,2.69
2023-01-11T21:39:20.366Z,2.97
2023-01-11T21:44:27.247Z,2.84
2023-01-11T21:49:30.728Z,2.86
2023-01-11T21:54:31.390Z,2.66
2023-01-11T21:59:33.890Z,2.83
2023-01-11T22:04:32.923Z,3.17
2023-01-11T22:09:32.249Z,3.28
2023-01-11T22:14:32.734Z,3.03
2023-01-11T22:19:33.678Z,3.18
2023-01-11T22:24:33.503Z,3.31
2023-01-11T22:29:37.548Z,3.30
2023-01-11T22:34:39.342Z,3.21
2023-01-11T22:39:38.231Z,2.75
2023-01-11T22:44:38.557Z,2.94
2023-01-11T22:49:37.472Z,3.14
2023-01-11T22:54:36.461Z,2.93
2023-01-11T22:59:36.339Z,2.45
2023-01-11T23:04:37.268Z,3.03
2023-01-11T23:09:36.409Z,2.93
2023-01-11T23:14:35.600Z,3.16
2023-01-11T23:19:36.754Z,3.29
2023-01-11T23:24:37.180Z,3.30
2023-01-11T23:29:36.515Z,3.20
2023-01-11T23:34:39.494Z,3.21
2023-01-11T23:39:38.502Z,3.18
2023-01-11T23:44:37.437Z,2.88
2023-01-11T23:49:38.121Z,2.98
2023-01-11T23:54:37.080Z,3.12
2023-01-11T23:59:36.039Z,3.24
